<?xml version="1.0" encoding="UTF-8"?>
<gpx version="1.1" creator="https://www.youtrack.es" xsi:schemaLocation="http://www.topografix.com/GPX/1/1 http://www.topografix.com/GPX/1/1/gpx.xsd http://www.garmin.com/xmlschemas/GpxExtensions/v3 http://www.garmin.com/xmlschemas/GpxExtensionsv3.xsd http://www.garmin.com/xmlschemas/TrackPointExtension/v1 http://www.garmin.com/xmlschemas/TrackPointExtensionv1.xsd" xmlns:gpxtpx="http://www.garmin.com/xmlschemas/TrackPointExtension/v1" xmlns:gpxx="http://www.garmin.com/xmlschemas/GpxExtensions/v3" xmlns:xsi="http://www.w3.org/2001/XMLSchema-instance">
  <metadata>
    <link href="https://www.youtrack.es">
      <text>YouTrack.es</text>
    </link>
    <time>2026-05-09T01:36:40Z</time>
  </metadata>
  <trk>
    <src>https://www.youtrack.es</src>
    <link href="https://www.youtrack.es/ruta/28991-2-la-muela-la-dehesa">
      <text>YouTrack.es</text>
    </link>
    <trkseg>
      <trkpt lat="40.339548" lon="-5.766537">
        <ele>1203.565</ele>
        <time>2022-01-27T18:24:21Z</time>
      </trkpt>
      <trkpt lat="40.339867" lon="-5.767883">
        <ele>1207.668</ele>
        <time>2022-01-27T18:25:01Z</time>
      </trkpt>
      <trkpt lat="40.340588" lon="-5.768213">
        <ele>1213.214</ele>
        <time>2022-01-27T18:25:41Z</time>
      </trkpt>
      <trkpt lat="40.340956" lon="-5.768470">
        <ele>1214.208</ele>
        <time>2022-01-27T18:26:21Z</time>
      </trkpt>
      <trkpt lat="40.341291" lon="-5.768749">
        <ele>1215.835</ele>
        <time>2022-01-27T18:27:01Z</time>
      </trkpt>
      <trkpt lat="40.341635" lon="-5.769414">
        <ele>1220.779</ele>
        <time>2022-01-27T18:27:41Z</time>
      </trkpt>
      <trkpt lat="40.341803" lon="-5.769601">
        <ele>1226.543</ele>
        <time>2022-01-27T18:28:21Z</time>
      </trkpt>
      <trkpt lat="40.342196" lon="-5.769515">
        <ele>1229.873</ele>
        <time>2022-01-27T18:29:01Z</time>
      </trkpt>
      <trkpt lat="40.342506" lon="-5.769590">
        <ele>1228.951</ele>
        <time>2022-01-27T18:29:41Z</time>
      </trkpt>
      <trkpt lat="40.342563" lon="-5.769735">
        <ele>1228.997</ele>
        <time>2022-01-27T18:30:21Z</time>
      </trkpt>
      <trkpt lat="40.342547" lon="-5.770207">
        <ele>1235.068</ele>
        <time>2022-01-27T18:31:01Z</time>
      </trkpt>
      <trkpt lat="40.342690" lon="-5.770357">
        <ele>1238.183</ele>
        <time>2022-01-27T18:31:41Z</time>
      </trkpt>
      <trkpt lat="40.343079" lon="-5.770304">
        <ele>1238.653</ele>
        <time>2022-01-27T18:32:21Z</time>
      </trkpt>
      <trkpt lat="40.343598" lon="-5.770717">
        <ele>1244.104</ele>
        <time>2022-01-27T18:33:01Z</time>
      </trkpt>
      <trkpt lat="40.343945" lon="-5.771210">
        <ele>1249.614</ele>
        <time>2022-01-27T18:33:41Z</time>
      </trkpt>
      <trkpt lat="40.344179" lon="-5.771280">
        <ele>1246.808</ele>
        <time>2022-01-27T18:34:21Z</time>
      </trkpt>
      <trkpt lat="40.344291" lon="-5.771464">
        <ele>1249.084</ele>
        <time>2022-01-27T18:35:01Z</time>
      </trkpt>
      <trkpt lat="40.344389" lon="-5.771877">
        <ele>1254.748</ele>
        <time>2022-01-27T18:35:41Z</time>
      </trkpt>
      <trkpt lat="40.344479" lon="-5.772161">
        <ele>1259.022</ele>
        <time>2022-01-27T18:36:21Z</time>
      </trkpt>
      <trkpt lat="40.344777" lon="-5.772413">
        <ele>1258.842</ele>
        <time>2022-01-27T18:37:01Z</time>
      </trkpt>
      <trkpt lat="40.344879" lon="-5.772708">
        <ele>1261.540</ele>
        <time>2022-01-27T18:37:41Z</time>
      </trkpt>
      <trkpt lat="40.344908" lon="-5.773014">
        <ele>1260.916</ele>
        <time>2022-01-27T18:38:21Z</time>
      </trkpt>
      <trkpt lat="40.344691" lon="-5.773588">
        <ele>1260.797</ele>
        <time>2022-01-27T18:39:01Z</time>
      </trkpt>
      <trkpt lat="40.344407" lon="-5.774109">
        <ele>1260.042</ele>
        <time>2022-01-27T18:39:41Z</time>
      </trkpt>
      <trkpt lat="40.344150" lon="-5.774254">
        <ele>1261.171</ele>
        <time>2022-01-27T18:40:21Z</time>
      </trkpt>
      <trkpt lat="40.343132" lon="-5.774785">
        <ele>1260.841</ele>
        <time>2022-01-27T18:41:01Z</time>
      </trkpt>
      <trkpt lat="40.342861" lon="-5.775051">
        <ele>1263.215</ele>
        <time>2022-01-27T18:41:41Z</time>
      </trkpt>
      <trkpt lat="40.342264" lon="-5.775931">
        <ele>1266.208</ele>
        <time>2022-01-27T18:42:21Z</time>
      </trkpt>
      <trkpt lat="40.342035" lon="-5.776253">
        <ele>1268.086</ele>
        <time>2022-01-27T18:43:01Z</time>
      </trkpt>
      <trkpt lat="40.341558" lon="-5.776586">
        <ele>1270.860</ele>
        <time>2022-01-27T18:43:41Z</time>
      </trkpt>
      <trkpt lat="40.341263" lon="-5.776736">
        <ele>1273.514</ele>
        <time>2022-01-27T18:44:21Z</time>
      </trkpt>
      <trkpt lat="40.340953" lon="-5.776843">
        <ele>1278.214</ele>
        <time>2022-01-27T18:45:01Z</time>
      </trkpt>
      <trkpt lat="40.340652" lon="-5.777378">
        <ele>1284.662</ele>
        <time>2022-01-27T18:45:41Z</time>
      </trkpt>
      <trkpt lat="40.340324" lon="-5.778103">
        <ele>1288.818</ele>
        <time>2022-01-27T18:46:21Z</time>
      </trkpt>
      <trkpt lat="40.340142" lon="-5.778484">
        <ele>1292.339</ele>
        <time>2022-01-27T18:47:01Z</time>
      </trkpt>
      <trkpt lat="40.339876" lon="-5.780205">
        <ele>1290.044</ele>
        <time>2022-01-27T18:47:41Z</time>
      </trkpt>
      <trkpt lat="40.339742" lon="-5.780695">
        <ele>1289.684</ele>
        <time>2022-01-27T18:48:21Z</time>
      </trkpt>
      <trkpt lat="40.339493" lon="-5.781210">
        <ele>1290.407</ele>
        <time>2022-01-27T18:49:01Z</time>
      </trkpt>
      <trkpt lat="40.339202" lon="-5.781870">
        <ele>1288.217</ele>
        <time>2022-01-27T18:49:41Z</time>
      </trkpt>
      <trkpt lat="40.338933" lon="-5.782309">
        <ele>1285.808</ele>
        <time>2022-01-27T18:50:21Z</time>
      </trkpt>
      <trkpt lat="40.338589" lon="-5.782658">
        <ele>1283.787</ele>
        <time>2022-01-27T18:51:01Z</time>
      </trkpt>
      <trkpt lat="40.338409" lon="-5.782883">
        <ele>1285.061</ele>
        <time>2022-01-27T18:51:41Z</time>
      </trkpt>
      <trkpt lat="40.338210" lon="-5.783343">
        <ele>1287.575</ele>
        <time>2022-01-27T18:52:21Z</time>
      </trkpt>
      <trkpt lat="40.338091" lon="-5.783616">
        <ele>1288.945</ele>
        <time>2022-01-27T18:53:01Z</time>
      </trkpt>
      <trkpt lat="40.337674" lon="-5.784212">
        <ele>1291.763</ele>
        <time>2022-01-27T18:53:41Z</time>
      </trkpt>
      <trkpt lat="40.337249" lon="-5.784786">
        <ele>1291.339</ele>
        <time>2022-01-27T18:54:21Z</time>
      </trkpt>
      <trkpt lat="40.336890" lon="-5.785064">
        <ele>1290.240</ele>
        <time>2022-01-27T18:55:01Z</time>
      </trkpt>
      <trkpt lat="40.336481" lon="-5.785326">
        <ele>1289.975</ele>
        <time>2022-01-27T18:55:41Z</time>
      </trkpt>
      <trkpt lat="40.336281" lon="-5.785514">
        <ele>1290.552</ele>
        <time>2022-01-27T18:56:21Z</time>
      </trkpt>
      <trkpt lat="40.336178" lon="-5.785675">
        <ele>1288.853</ele>
        <time>2022-01-27T18:57:01Z</time>
      </trkpt>
      <trkpt lat="40.336023" lon="-5.785863">
        <ele>1286.008</ele>
        <time>2022-01-27T18:57:41Z</time>
      </trkpt>
      <trkpt lat="40.335614" lon="-5.786008">
        <ele>1291.508</ele>
        <time>2022-01-27T18:58:21Z</time>
      </trkpt>
      <trkpt lat="40.335446" lon="-5.786269">
        <ele>1292.824</ele>
        <time>2022-01-27T18:59:01Z</time>
      </trkpt>
      <trkpt lat="40.335230" lon="-5.786978">
        <ele>1294.728</ele>
        <time>2022-01-27T18:59:41Z</time>
      </trkpt>
      <trkpt lat="40.334960" lon="-5.788222">
        <ele>1298.052</ele>
        <time>2022-01-27T19:00:21Z</time>
      </trkpt>
      <trkpt lat="40.334747" lon="-5.788785">
        <ele>1296.742</ele>
        <time>2022-01-27T19:01:01Z</time>
      </trkpt>
      <trkpt lat="40.334375" lon="-5.789316">
        <ele>1295.390</ele>
        <time>2022-01-27T19:01:41Z</time>
      </trkpt>
      <trkpt lat="40.333942" lon="-5.789853">
        <ele>1294.496</ele>
        <time>2022-01-27T19:02:21Z</time>
      </trkpt>
      <trkpt lat="40.333684" lon="-5.790395">
        <ele>1293.787</ele>
        <time>2022-01-27T19:03:01Z</time>
      </trkpt>
      <trkpt lat="40.333361" lon="-5.790711">
        <ele>1297.542</ele>
        <time>2022-01-27T19:03:41Z</time>
      </trkpt>
      <trkpt lat="40.333214" lon="-5.790856">
        <ele>1298.962</ele>
        <time>2022-01-27T19:04:21Z</time>
      </trkpt>
      <trkpt lat="40.333160" lon="-5.791478">
        <ele>1295.983</ele>
        <time>2022-01-27T19:05:01Z</time>
      </trkpt>
      <trkpt lat="40.332900" lon="-5.792368">
        <ele>1293.211</ele>
        <time>2022-01-27T19:05:41Z</time>
      </trkpt>
      <trkpt lat="40.332606" lon="-5.792813">
        <ele>1295.308</ele>
        <time>2022-01-27T19:06:21Z</time>
      </trkpt>
      <trkpt lat="40.331956" lon="-5.793569">
        <ele>1304.245</ele>
        <time>2022-01-27T19:07:01Z</time>
      </trkpt>
      <trkpt lat="40.331652" lon="-5.794469">
        <ele>1309.119</ele>
        <time>2022-01-27T19:07:41Z</time>
      </trkpt>
      <trkpt lat="40.331557" lon="-5.794700">
        <ele>1309.993</ele>
        <time>2022-01-27T19:08:21Z</time>
      </trkpt>
      <trkpt lat="40.331373" lon="-5.794486">
        <ele>1309.293</ele>
        <time>2022-01-27T19:09:01Z</time>
      </trkpt>
      <trkpt lat="40.331140" lon="-5.794303">
        <ele>1313.291</ele>
        <time>2022-01-27T19:09:41Z</time>
      </trkpt>
      <trkpt lat="40.331104" lon="-5.794282">
        <ele>1314.087</ele>
        <time>2022-01-27T19:10:21Z</time>
      </trkpt>
      <trkpt lat="40.330981" lon="-5.794250">
        <ele>1315.848</ele>
        <time>2022-01-27T19:11:01Z</time>
      </trkpt>
      <trkpt lat="40.330870" lon="-5.794330">
        <ele>1315.283</ele>
        <time>2022-01-27T19:11:41Z</time>
      </trkpt>
      <trkpt lat="40.330703" lon="-5.794421">
        <ele>1315.584</ele>
        <time>2022-01-27T19:12:21Z</time>
      </trkpt>
      <trkpt lat="40.330519" lon="-5.794491">
        <ele>1316.607</ele>
        <time>2022-01-27T19:13:01Z</time>
      </trkpt>
      <trkpt lat="40.329988" lon="-5.794565">
        <ele>1322.917</ele>
        <time>2022-01-27T19:13:41Z</time>
      </trkpt>
      <trkpt lat="40.329702" lon="-5.794608">
        <ele>1327.108</ele>
        <time>2022-01-27T19:14:21Z</time>
      </trkpt>
      <trkpt lat="40.329444" lon="-5.794678">
        <ele>1331.677</ele>
        <time>2022-01-27T19:15:01Z</time>
      </trkpt>
      <trkpt lat="40.329199" lon="-5.794769">
        <ele>1330.471</ele>
        <time>2022-01-27T19:15:41Z</time>
      </trkpt>
      <trkpt lat="40.329121" lon="-5.794737">
        <ele>1331.625</ele>
        <time>2022-01-27T19:16:21Z</time>
      </trkpt>
      <trkpt lat="40.329084" lon="-5.794651">
        <ele>1333.895</ele>
        <time>2022-01-27T19:17:01Z</time>
      </trkpt>
      <trkpt lat="40.329285" lon="-5.794442">
        <ele>1339.573</ele>
        <time>2022-01-27T19:17:41Z</time>
      </trkpt>
      <trkpt lat="40.329587" lon="-5.794071">
        <ele>1345.389</ele>
        <time>2022-01-27T19:18:21Z</time>
      </trkpt>
      <trkpt lat="40.329837" lon="-5.793653">
        <ele>1348.560</ele>
        <time>2022-01-27T19:19:01Z</time>
      </trkpt>
      <trkpt lat="40.329914" lon="-5.793428">
        <ele>1351.015</ele>
        <time>2022-01-27T19:19:41Z</time>
      </trkpt>
      <trkpt lat="40.329902" lon="-5.793320">
        <ele>1352.674</ele>
        <time>2022-01-27T19:20:21Z</time>
      </trkpt>
      <trkpt lat="40.329845" lon="-5.793245">
        <ele>1354.456</ele>
        <time>2022-01-27T19:21:01Z</time>
      </trkpt>
      <trkpt lat="40.329767" lon="-5.793272">
        <ele>1355.221</ele>
        <time>2022-01-27T19:21:41Z</time>
      </trkpt>
      <trkpt lat="40.329432" lon="-5.793524">
        <ele>1359.708</ele>
        <time>2022-01-27T19:22:21Z</time>
      </trkpt>
      <trkpt lat="40.329211" lon="-5.793621">
        <ele>1359.586</ele>
        <time>2022-01-27T19:23:01Z</time>
      </trkpt>
      <trkpt lat="40.328970" lon="-5.793680">
        <ele>1361.020</ele>
        <time>2022-01-27T19:23:41Z</time>
      </trkpt>
      <trkpt lat="40.328827" lon="-5.793728">
        <ele>1361.784</ele>
        <time>2022-01-27T19:24:21Z</time>
      </trkpt>
      <trkpt lat="40.328724" lon="-5.793701">
        <ele>1364.654</ele>
        <time>2022-01-27T19:25:01Z</time>
      </trkpt>
      <trkpt lat="40.328757" lon="-5.793578">
        <ele>1368.362</ele>
        <time>2022-01-27T19:25:41Z</time>
      </trkpt>
      <trkpt lat="40.328949" lon="-5.793540">
        <ele>1365.278</ele>
        <time>2022-01-27T19:26:21Z</time>
      </trkpt>
      <trkpt lat="40.329215" lon="-5.793310">
        <ele>1368.589</ele>
        <time>2022-01-27T19:27:01Z</time>
      </trkpt>
      <trkpt lat="40.329309" lon="-5.793229">
        <ele>1368.644</ele>
        <time>2022-01-27T19:27:41Z</time>
      </trkpt>
      <trkpt lat="40.329297" lon="-5.793143">
        <ele>1370.962</ele>
        <time>2022-01-27T19:28:21Z</time>
      </trkpt>
      <trkpt lat="40.329235" lon="-5.793127">
        <ele>1372.383</ele>
        <time>2022-01-27T19:29:01Z</time>
      </trkpt>
      <trkpt lat="40.328925" lon="-5.793337">
        <ele>1371.511</ele>
        <time>2022-01-27T19:29:41Z</time>
      </trkpt>
      <trkpt lat="40.328814" lon="-5.793347">
        <ele>1373.508</ele>
        <time>2022-01-27T19:30:21Z</time>
      </trkpt>
      <trkpt lat="40.328769" lon="-5.793288">
        <ele>1376.715</ele>
        <time>2022-01-27T19:31:01Z</time>
      </trkpt>
      <trkpt lat="40.328757" lon="-5.793127">
        <ele>1383.139</ele>
        <time>2022-01-27T19:31:41Z</time>
      </trkpt>
      <trkpt lat="40.328806" lon="-5.792934">
        <ele>1387.823</ele>
        <time>2022-01-27T19:32:21Z</time>
      </trkpt>
      <trkpt lat="40.328961" lon="-5.792714">
        <ele>1389.473</ele>
        <time>2022-01-27T19:33:01Z</time>
      </trkpt>
      <trkpt lat="40.329109" lon="-5.792451">
        <ele>1391.421</ele>
        <time>2022-01-27T19:33:41Z</time>
      </trkpt>
      <trkpt lat="40.329244" lon="-5.792280">
        <ele>1392.287</ele>
        <time>2022-01-27T19:34:21Z</time>
      </trkpt>
      <trkpt lat="40.329252" lon="-5.792167">
        <ele>1394.888</ele>
        <time>2022-01-27T19:35:01Z</time>
      </trkpt>
      <trkpt lat="40.329199" lon="-5.792092">
        <ele>1397.933</ele>
        <time>2022-01-27T19:35:41Z</time>
      </trkpt>
      <trkpt lat="40.329117" lon="-5.792119">
        <ele>1399.389</ele>
        <time>2022-01-27T19:36:21Z</time>
      </trkpt>
      <trkpt lat="40.328941" lon="-5.792285">
        <ele>1400.406</ele>
        <time>2022-01-27T19:37:01Z</time>
      </trkpt>
      <trkpt lat="40.328861" lon="-5.792315">
        <ele>1401.826</ele>
        <time>2022-01-27T19:37:41Z</time>
      </trkpt>
      <trkpt lat="40.328808" lon="-5.792256">
        <ele>1403.808</ele>
        <time>2022-01-27T19:38:21Z</time>
      </trkpt>
      <trkpt lat="40.328824" lon="-5.792160">
        <ele>1405.077</ele>
        <time>2022-01-27T19:39:01Z</time>
      </trkpt>
      <trkpt lat="40.328926" lon="-5.791956">
        <ele>1406.251</ele>
        <time>2022-01-27T19:39:41Z</time>
      </trkpt>
      <trkpt lat="40.328988" lon="-5.791666">
        <ele>1408.215</ele>
        <time>2022-01-27T19:40:21Z</time>
      </trkpt>
      <trkpt lat="40.329082" lon="-5.791183">
        <ele>1411.785</ele>
        <time>2022-01-27T19:41:01Z</time>
      </trkpt>
      <trkpt lat="40.329225" lon="-5.790759">
        <ele>1413.343</ele>
        <time>2022-01-27T19:41:41Z</time>
      </trkpt>
      <trkpt lat="40.329262" lon="-5.790566">
        <ele>1414.289</ele>
        <time>2022-01-27T19:42:21Z</time>
      </trkpt>
      <trkpt lat="40.329184" lon="-5.790475">
        <ele>1417.440</ele>
        <time>2022-01-27T19:43:01Z</time>
      </trkpt>
      <trkpt lat="40.329090" lon="-5.790470">
        <ele>1419.775</ele>
        <time>2022-01-27T19:43:41Z</time>
      </trkpt>
      <trkpt lat="40.328963" lon="-5.790518">
        <ele>1421.923</ele>
        <time>2022-01-27T19:44:21Z</time>
      </trkpt>
      <trkpt lat="40.328885" lon="-5.790679">
        <ele>1421.783</ele>
        <time>2022-01-27T19:45:01Z</time>
      </trkpt>
      <trkpt lat="40.328625" lon="-5.791020">
        <ele>1422.111</ele>
        <time>2022-01-27T19:45:41Z</time>
      </trkpt>
      <trkpt lat="40.328281" lon="-5.791342">
        <ele>1423.408</ele>
        <time>2022-01-27T19:46:21Z</time>
      </trkpt>
      <trkpt lat="40.327966" lon="-5.791567">
        <ele>1424.811</ele>
        <time>2022-01-27T19:47:01Z</time>
      </trkpt>
      <trkpt lat="40.327753" lon="-5.791739">
        <ele>1424.965</ele>
        <time>2022-01-27T19:47:41Z</time>
      </trkpt>
      <trkpt lat="40.327553" lon="-5.791728">
        <ele>1428.739</ele>
        <time>2022-01-27T19:48:21Z</time>
      </trkpt>
      <trkpt lat="40.327361" lon="-5.791739">
        <ele>1431.449</ele>
        <time>2022-01-27T19:49:01Z</time>
      </trkpt>
      <trkpt lat="40.327123" lon="-5.791956">
        <ele>1429.897</ele>
        <time>2022-01-27T19:49:41Z</time>
      </trkpt>
      <trkpt lat="40.326906" lon="-5.792138">
        <ele>1427.763</ele>
        <time>2022-01-27T19:50:21Z</time>
      </trkpt>
      <trkpt lat="40.326738" lon="-5.792256">
        <ele>1427.654</ele>
        <time>2022-01-27T19:51:01Z</time>
      </trkpt>
      <trkpt lat="40.326530" lon="-5.792229">
        <ele>1429.889</ele>
        <time>2022-01-27T19:51:41Z</time>
      </trkpt>
      <trkpt lat="40.326248" lon="-5.792101">
        <ele>1434.392</ele>
        <time>2022-01-27T19:52:21Z</time>
      </trkpt>
      <trkpt lat="40.326092" lon="-5.792020">
        <ele>1438.073</ele>
        <time>2022-01-27T19:53:01Z</time>
      </trkpt>
      <trkpt lat="40.326002" lon="-5.792025">
        <ele>1438.720</ele>
        <time>2022-01-27T19:53:41Z</time>
      </trkpt>
      <trkpt lat="40.325593" lon="-5.792460">
        <ele>1433.308</ele>
        <time>2022-01-27T19:54:21Z</time>
      </trkpt>
      <trkpt lat="40.325429" lon="-5.792517">
        <ele>1432.598</ele>
        <time>2022-01-27T19:55:01Z</time>
      </trkpt>
      <trkpt lat="40.325179" lon="-5.792372">
        <ele>1436.052</ele>
        <time>2022-01-27T19:55:41Z</time>
      </trkpt>
      <trkpt lat="40.325024" lon="-5.792254">
        <ele>1439.166</ele>
        <time>2022-01-27T19:56:21Z</time>
      </trkpt>
      <trkpt lat="40.324795" lon="-5.792227">
        <ele>1439.146</ele>
        <time>2022-01-27T19:57:01Z</time>
      </trkpt>
      <trkpt lat="40.324541" lon="-5.792029">
        <ele>1441.264</ele>
        <time>2022-01-27T19:57:41Z</time>
      </trkpt>
      <trkpt lat="40.324386" lon="-5.791911">
        <ele>1442.760</ele>
        <time>2022-01-27T19:58:21Z</time>
      </trkpt>
      <trkpt lat="40.324255" lon="-5.791975">
        <ele>1438.861</ele>
        <time>2022-01-27T19:59:01Z</time>
      </trkpt>
      <trkpt lat="40.324145" lon="-5.791927">
        <ele>1438.456</ele>
        <time>2022-01-27T19:59:41Z</time>
      </trkpt>
      <trkpt lat="40.323936" lon="-5.791814">
        <ele>1439.464</ele>
        <time>2022-01-27T20:00:21Z</time>
      </trkpt>
      <trkpt lat="40.323820" lon="-5.791692">
        <ele>1442.006</ele>
        <time>2022-01-27T20:01:01Z</time>
      </trkpt>
      <trkpt lat="40.323677" lon="-5.791660">
        <ele>1442.416</ele>
        <time>2022-01-27T20:01:41Z</time>
      </trkpt>
      <trkpt lat="40.323456" lon="-5.791783">
        <ele>1440.808</ele>
        <time>2022-01-27T20:02:21Z</time>
      </trkpt>
      <trkpt lat="40.323296" lon="-5.791981">
        <ele>1436.115</ele>
        <time>2022-01-27T20:03:01Z</time>
      </trkpt>
      <trkpt lat="40.323112" lon="-5.792148">
        <ele>1432.589</ele>
        <time>2022-01-27T20:03:41Z</time>
      </trkpt>
      <trkpt lat="40.322986" lon="-5.792099">
        <ele>1433.153</ele>
        <time>2022-01-27T20:04:21Z</time>
      </trkpt>
      <trkpt lat="40.322785" lon="-5.792024">
        <ele>1433.813</ele>
        <time>2022-01-27T20:05:01Z</time>
      </trkpt>
      <trkpt lat="40.322709" lon="-5.791957">
        <ele>1432.441</ele>
        <time>2022-01-27T20:05:41Z</time>
      </trkpt>
      <trkpt lat="40.322378" lon="-5.791544">
        <ele>1430.327</ele>
        <time>2022-01-27T20:06:21Z</time>
      </trkpt>
      <trkpt lat="40.322317" lon="-5.791394">
        <ele>1432.628</ele>
        <time>2022-01-27T20:07:01Z</time>
      </trkpt>
      <trkpt lat="40.322272" lon="-5.791324">
        <ele>1433.623</ele>
        <time>2022-01-27T20:07:41Z</time>
      </trkpt>
      <trkpt lat="40.321715" lon="-5.791002">
        <ele>1437.779</ele>
        <time>2022-01-27T20:08:21Z</time>
      </trkpt>
      <trkpt lat="40.321396" lon="-5.791017">
        <ele>1434.105</ele>
        <time>2022-01-27T20:09:01Z</time>
      </trkpt>
      <trkpt lat="40.321184" lon="-5.790963">
        <ele>1435.625</ele>
        <time>2022-01-27T20:09:41Z</time>
      </trkpt>
      <trkpt lat="40.320848" lon="-5.790738">
        <ele>1436.208</ele>
        <time>2022-01-27T20:10:21Z</time>
      </trkpt>
      <trkpt lat="40.320574" lon="-5.790529">
        <ele>1436.656</ele>
        <time>2022-01-27T20:11:01Z</time>
      </trkpt>
      <trkpt lat="40.320484" lon="-5.790432">
        <ele>1437.740</ele>
        <time>2022-01-27T20:11:41Z</time>
      </trkpt>
      <trkpt lat="40.320362" lon="-5.790014">
        <ele>1450.454</ele>
        <time>2022-01-27T20:12:21Z</time>
      </trkpt>
      <trkpt lat="40.320312" lon="-5.789907">
        <ele>1451.394</ele>
        <time>2022-01-27T20:13:01Z</time>
      </trkpt>
      <trkpt lat="40.320022" lon="-5.789499">
        <ele>1459.482</ele>
        <time>2022-01-27T20:13:41Z</time>
      </trkpt>
      <trkpt lat="40.319972" lon="-5.789447">
        <ele>1461.258</ele>
        <time>2022-01-27T20:14:21Z</time>
      </trkpt>
      <trkpt lat="40.319866" lon="-5.789426">
        <ele>1463.059</ele>
        <time>2022-01-27T20:15:01Z</time>
      </trkpt>
      <trkpt lat="40.319616" lon="-5.789673">
        <ele>1462.364</ele>
        <time>2022-01-27T20:15:41Z</time>
      </trkpt>
      <trkpt lat="40.319383" lon="-5.789994">
        <ele>1459.752</ele>
        <time>2022-01-27T20:16:21Z</time>
      </trkpt>
      <trkpt lat="40.319220" lon="-5.790091">
        <ele>1460.953</ele>
        <time>2022-01-27T20:17:01Z</time>
      </trkpt>
      <trkpt lat="40.318962" lon="-5.790091">
        <ele>1464.708</ele>
        <time>2022-01-27T20:17:41Z</time>
      </trkpt>
      <trkpt lat="40.318749" lon="-5.790182">
        <ele>1466.108</ele>
        <time>2022-01-27T20:18:21Z</time>
      </trkpt>
      <trkpt lat="40.318231" lon="-5.790792">
        <ele>1471.574</ele>
        <time>2022-01-27T20:19:01Z</time>
      </trkpt>
      <trkpt lat="40.317867" lon="-5.791097">
        <ele>1473.548</ele>
        <time>2022-01-27T20:19:41Z</time>
      </trkpt>
      <trkpt lat="40.317572" lon="-5.791355">
        <ele>1471.962</ele>
        <time>2022-01-27T20:20:21Z</time>
      </trkpt>
      <trkpt lat="40.317396" lon="-5.791435">
        <ele>1471.642</ele>
        <time>2022-01-27T20:21:01Z</time>
      </trkpt>
      <trkpt lat="40.317183" lon="-5.791494">
        <ele>1474.840</ele>
        <time>2022-01-27T20:21:41Z</time>
      </trkpt>
      <trkpt lat="40.316846" lon="-5.791831">
        <ele>1478.256</ele>
        <time>2022-01-27T20:22:21Z</time>
      </trkpt>
      <trkpt lat="40.316502" lon="-5.792277">
        <ele>1479.287</ele>
        <time>2022-01-27T20:23:01Z</time>
      </trkpt>
      <trkpt lat="40.316334" lon="-5.792716">
        <ele>1476.742</ele>
        <time>2022-01-27T20:23:41Z</time>
      </trkpt>
      <trkpt lat="40.316199" lon="-5.793188">
        <ele>1471.885</ele>
        <time>2022-01-27T20:24:21Z</time>
      </trkpt>
      <trkpt lat="40.315885" lon="-5.793838">
        <ele>1464.689</ele>
        <time>2022-01-27T20:25:01Z</time>
      </trkpt>
      <trkpt lat="40.315722" lon="-5.794036">
        <ele>1463.017</ele>
        <time>2022-01-27T20:25:41Z</time>
      </trkpt>
      <trkpt lat="40.315542" lon="-5.794192">
        <ele>1461.308</ele>
        <time>2022-01-27T20:26:21Z</time>
      </trkpt>
      <trkpt lat="40.315194" lon="-5.794428">
        <ele>1457.867</ele>
        <time>2022-01-27T20:27:01Z</time>
      </trkpt>
      <trkpt lat="40.315067" lon="-5.794481">
        <ele>1456.991</ele>
        <time>2022-01-27T20:27:41Z</time>
      </trkpt>
      <trkpt lat="40.314797" lon="-5.794385">
        <ele>1461.645</ele>
        <time>2022-01-27T20:28:21Z</time>
      </trkpt>
      <trkpt lat="40.314486" lon="-5.794417">
        <ele>1462.695</ele>
        <time>2022-01-27T20:29:01Z</time>
      </trkpt>
      <trkpt lat="40.314094" lon="-5.794417">
        <ele>1460.483</ele>
        <time>2022-01-27T20:29:41Z</time>
      </trkpt>
      <trkpt lat="40.313903" lon="-5.794346">
        <ele>1461.019</ele>
        <time>2022-01-27T20:30:21Z</time>
      </trkpt>
      <trkpt lat="40.313842" lon="-5.794217">
        <ele>1464.070</ele>
        <time>2022-01-27T20:31:01Z</time>
      </trkpt>
      <trkpt lat="40.313551" lon="-5.794089">
        <ele>1463.265</ele>
        <time>2022-01-27T20:31:41Z</time>
      </trkpt>
      <trkpt lat="40.313396" lon="-5.793938">
        <ele>1463.784</ele>
        <time>2022-01-27T20:32:21Z</time>
      </trkpt>
      <trkpt lat="40.313240" lon="-5.793745">
        <ele>1464.907</ele>
        <time>2022-01-27T20:33:01Z</time>
      </trkpt>
      <trkpt lat="40.312876" lon="-5.793600">
        <ele>1461.717</ele>
        <time>2022-01-27T20:33:41Z</time>
      </trkpt>
      <trkpt lat="40.312537" lon="-5.793488">
        <ele>1458.608</ele>
        <time>2022-01-27T20:34:21Z</time>
      </trkpt>
      <trkpt lat="40.312031" lon="-5.793349">
        <ele>1453.557</ele>
        <time>2022-01-27T20:35:01Z</time>
      </trkpt>
      <trkpt lat="40.311483" lon="-5.793297">
        <ele>1453.551</ele>
        <time>2022-01-27T20:35:41Z</time>
      </trkpt>
      <trkpt lat="40.311201" lon="-5.793345">
        <ele>1450.855</ele>
        <time>2022-01-27T20:36:21Z</time>
      </trkpt>
      <trkpt lat="40.311021" lon="-5.793324">
        <ele>1451.195</ele>
        <time>2022-01-27T20:37:01Z</time>
      </trkpt>
      <trkpt lat="40.310751" lon="-5.793308">
        <ele>1451.553</ele>
        <time>2022-01-27T20:37:41Z</time>
      </trkpt>
      <trkpt lat="40.310493" lon="-5.793393">
        <ele>1450.249</ele>
        <time>2022-01-27T20:38:21Z</time>
      </trkpt>
      <trkpt lat="40.310244" lon="-5.793458">
        <ele>1451.150</ele>
        <time>2022-01-27T20:39:01Z</time>
      </trkpt>
      <trkpt lat="40.310113" lon="-5.793436">
        <ele>1452.165</ele>
        <time>2022-01-27T20:39:41Z</time>
      </trkpt>
      <trkpt lat="40.309957" lon="-5.793329">
        <ele>1454.892</ele>
        <time>2022-01-27T20:40:21Z</time>
      </trkpt>
      <trkpt lat="40.309691" lon="-5.793297">
        <ele>1453.973</ele>
        <time>2022-01-27T20:41:01Z</time>
      </trkpt>
      <trkpt lat="40.309402" lon="-5.793065">
        <ele>1459.820</ele>
        <time>2022-01-27T20:41:41Z</time>
      </trkpt>
      <trkpt lat="40.309226" lon="-5.792840">
        <ele>1461.408</ele>
        <time>2022-01-27T20:42:21Z</time>
      </trkpt>
      <trkpt lat="40.309042" lon="-5.792582">
        <ele>1462.148</ele>
        <time>2022-01-27T20:43:01Z</time>
      </trkpt>
      <trkpt lat="40.308964" lon="-5.792411">
        <ele>1462.432</ele>
        <time>2022-01-27T20:43:41Z</time>
      </trkpt>
      <trkpt lat="40.308886" lon="-5.792073">
        <ele>1462.536</ele>
        <time>2022-01-27T20:44:21Z</time>
      </trkpt>
      <trkpt lat="40.308845" lon="-5.791799">
        <ele>1462.336</ele>
        <time>2022-01-27T20:45:01Z</time>
      </trkpt>
      <trkpt lat="40.308772" lon="-5.791670">
        <ele>1460.544</ele>
        <time>2022-01-27T20:45:41Z</time>
      </trkpt>
      <trkpt lat="40.308702" lon="-5.791670">
        <ele>1459.080</ele>
        <time>2022-01-27T20:46:21Z</time>
      </trkpt>
      <trkpt lat="40.308277" lon="-5.792191">
        <ele>1456.621</ele>
        <time>2022-01-27T20:47:01Z</time>
      </trkpt>
      <trkpt lat="40.308101" lon="-5.792330">
        <ele>1454.126</ele>
        <time>2022-01-27T20:47:41Z</time>
      </trkpt>
      <trkpt lat="40.307823" lon="-5.792421">
        <ele>1451.275</ele>
        <time>2022-01-27T20:48:21Z</time>
      </trkpt>
      <trkpt lat="40.307197" lon="-5.792443">
        <ele>1442.628</ele>
        <time>2022-01-27T20:49:01Z</time>
      </trkpt>
      <trkpt lat="40.306931" lon="-5.792647">
        <ele>1437.820</ele>
        <time>2022-01-27T20:49:41Z</time>
      </trkpt>
      <trkpt lat="40.306573" lon="-5.793344">
        <ele>1434.008</ele>
        <time>2022-01-27T20:50:21Z</time>
      </trkpt>
      <trkpt lat="40.306286" lon="-5.794186">
        <ele>1426.346</ele>
        <time>2022-01-27T20:51:01Z</time>
      </trkpt>
      <trkpt lat="40.306118" lon="-5.794803">
        <ele>1420.950</ele>
        <time>2022-01-27T20:51:41Z</time>
      </trkpt>
      <trkpt lat="40.306057" lon="-5.795109">
        <ele>1420.014</ele>
        <time>2022-01-27T20:52:21Z</time>
      </trkpt>
      <trkpt lat="40.305840" lon="-5.795286">
        <ele>1416.364</ele>
        <time>2022-01-27T20:53:01Z</time>
      </trkpt>
      <trkpt lat="40.305591" lon="-5.795645">
        <ele>1411.732</ele>
        <time>2022-01-27T20:53:41Z</time>
      </trkpt>
      <trkpt lat="40.305386" lon="-5.796241">
        <ele>1407.028</ele>
        <time>2022-01-27T20:54:21Z</time>
      </trkpt>
      <trkpt lat="40.305358" lon="-5.796622">
        <ele>1403.949</ele>
        <time>2022-01-27T20:55:01Z</time>
      </trkpt>
      <trkpt lat="40.305488" lon="-5.796874">
        <ele>1401.914</ele>
        <time>2022-01-27T20:55:41Z</time>
      </trkpt>
      <trkpt lat="40.305779" lon="-5.797104">
        <ele>1394.149</ele>
        <time>2022-01-27T20:56:21Z</time>
      </trkpt>
      <trkpt lat="40.306286" lon="-5.797282">
        <ele>1388.602</ele>
        <time>2022-01-27T20:57:01Z</time>
      </trkpt>
      <trkpt lat="40.306679" lon="-5.797378">
        <ele>1385.022</ele>
        <time>2022-01-27T20:57:41Z</time>
      </trkpt>
      <trkpt lat="40.307402" lon="-5.797079">
        <ele>1381.408</ele>
        <time>2022-01-27T20:58:21Z</time>
      </trkpt>
      <trkpt lat="40.307914" lon="-5.796784">
        <ele>1381.113</ele>
        <time>2022-01-27T20:59:01Z</time>
      </trkpt>
      <trkpt lat="40.308249" lon="-5.796687">
        <ele>1377.137</ele>
        <time>2022-01-27T20:59:41Z</time>
      </trkpt>
      <trkpt lat="40.308413" lon="-5.796537">
        <ele>1376.411</ele>
        <time>2022-01-27T21:00:21Z</time>
      </trkpt>
      <trkpt lat="40.308486" lon="-5.796397">
        <ele>1376.831</ele>
        <time>2022-01-27T21:01:01Z</time>
      </trkpt>
      <trkpt lat="40.308890" lon="-5.795866">
        <ele>1374.159</ele>
        <time>2022-01-27T21:01:41Z</time>
      </trkpt>
      <trkpt lat="40.309209" lon="-5.795620">
        <ele>1372.775</ele>
        <time>2022-01-27T21:02:21Z</time>
      </trkpt>
      <trkpt lat="40.309488" lon="-5.795528">
        <ele>1372.086</ele>
        <time>2022-01-27T21:03:01Z</time>
      </trkpt>
      <trkpt lat="40.309774" lon="-5.795545">
        <ele>1369.291</ele>
        <time>2022-01-27T21:03:41Z</time>
      </trkpt>
      <trkpt lat="40.310317" lon="-5.795247">
        <ele>1374.214</ele>
        <time>2022-01-27T21:04:21Z</time>
      </trkpt>
      <trkpt lat="40.310775" lon="-5.795086">
        <ele>1381.454</ele>
        <time>2022-01-27T21:05:01Z</time>
      </trkpt>
      <trkpt lat="40.311115" lon="-5.795151">
        <ele>1381.109</ele>
        <time>2022-01-27T21:05:41Z</time>
      </trkpt>
      <trkpt lat="40.311512" lon="-5.795290">
        <ele>1382.808</ele>
        <time>2022-01-27T21:06:21Z</time>
      </trkpt>
      <trkpt lat="40.311712" lon="-5.795569">
        <ele>1382.050</ele>
        <time>2022-01-27T21:07:01Z</time>
      </trkpt>
      <trkpt lat="40.311984" lon="-5.795978">
        <ele>1380.094</ele>
        <time>2022-01-27T21:07:41Z</time>
      </trkpt>
      <trkpt lat="40.312364" lon="-5.796123">
        <ele>1381.058</ele>
        <time>2022-01-27T21:08:21Z</time>
      </trkpt>
      <trkpt lat="40.313716" lon="-5.796601">
        <ele>1377.828</ele>
        <time>2022-01-27T21:09:01Z</time>
      </trkpt>
      <trkpt lat="40.314375" lon="-5.796784">
        <ele>1377.766</ele>
        <time>2022-01-27T21:09:41Z</time>
      </trkpt>
      <trkpt lat="40.314861" lon="-5.796973">
        <ele>1374.412</ele>
        <time>2022-01-27T21:10:21Z</time>
      </trkpt>
      <trkpt lat="40.315000" lon="-5.797316">
        <ele>1371.613</ele>
        <time>2022-01-27T21:11:01Z</time>
      </trkpt>
      <trkpt lat="40.315209" lon="-5.797681">
        <ele>1367.318</ele>
        <time>2022-01-27T21:11:41Z</time>
      </trkpt>
      <trkpt lat="40.316072" lon="-5.798373">
        <ele>1359.044</ele>
        <time>2022-01-27T21:12:21Z</time>
      </trkpt>
      <trkpt lat="40.316867" lon="-5.798181">
        <ele>1350.305</ele>
        <time>2022-01-27T21:13:01Z</time>
      </trkpt>
      <trkpt lat="40.317427" lon="-5.798036">
        <ele>1345.415</ele>
        <time>2022-01-27T21:13:41Z</time>
      </trkpt>
      <trkpt lat="40.317656" lon="-5.797762">
        <ele>1343.208</ele>
        <time>2022-01-27T21:14:21Z</time>
      </trkpt>
      <trkpt lat="40.317849" lon="-5.797376">
        <ele>1340.993</ele>
        <time>2022-01-27T21:15:01Z</time>
      </trkpt>
      <trkpt lat="40.317898" lon="-5.797043">
        <ele>1341.897</ele>
        <time>2022-01-27T21:15:41Z</time>
      </trkpt>
      <trkpt lat="40.317877" lon="-5.796775">
        <ele>1340.251</ele>
        <time>2022-01-27T21:16:21Z</time>
      </trkpt>
      <trkpt lat="40.317851" lon="-5.796264">
        <ele>1335.821</ele>
        <time>2022-01-27T21:17:01Z</time>
      </trkpt>
      <trkpt lat="40.317912" lon="-5.795910">
        <ele>1334.829</ele>
        <time>2022-01-27T21:17:41Z</time>
      </trkpt>
      <trkpt lat="40.318088" lon="-5.795358">
        <ele>1331.275</ele>
        <time>2022-01-27T21:18:21Z</time>
      </trkpt>
      <trkpt lat="40.318297" lon="-5.794923">
        <ele>1325.666</ele>
        <time>2022-01-27T21:19:01Z</time>
      </trkpt>
      <trkpt lat="40.318424" lon="-5.794618">
        <ele>1324.721</ele>
        <time>2022-01-27T21:19:41Z</time>
      </trkpt>
      <trkpt lat="40.318788" lon="-5.794693">
        <ele>1313.189</ele>
        <time>2022-01-27T21:20:21Z</time>
      </trkpt>
      <trkpt lat="40.319082" lon="-5.794682">
        <ele>1308.506</ele>
        <time>2022-01-27T21:21:01Z</time>
      </trkpt>
      <trkpt lat="40.319508" lon="-5.794479">
        <ele>1303.826</ele>
        <time>2022-01-27T21:21:41Z</time>
      </trkpt>
      <trkpt lat="40.319786" lon="-5.794200">
        <ele>1303.308</ele>
        <time>2022-01-27T21:22:21Z</time>
      </trkpt>
      <trkpt lat="40.319995" lon="-5.794125">
        <ele>1301.057</ele>
        <time>2022-01-27T21:23:01Z</time>
      </trkpt>
      <trkpt lat="40.320093" lon="-5.794281">
        <ele>1302.521</ele>
        <time>2022-01-27T21:23:41Z</time>
      </trkpt>
      <trkpt lat="40.320167" lon="-5.794640">
        <ele>1300.655</ele>
        <time>2022-01-27T21:24:21Z</time>
      </trkpt>
      <trkpt lat="40.320355" lon="-5.794962">
        <ele>1302.585</ele>
        <time>2022-01-27T21:25:01Z</time>
      </trkpt>
      <trkpt lat="40.320596" lon="-5.795386">
        <ele>1303.263</ele>
        <time>2022-01-27T21:25:41Z</time>
      </trkpt>
      <trkpt lat="40.320797" lon="-5.795874">
        <ele>1303.279</ele>
        <time>2022-01-27T21:26:21Z</time>
      </trkpt>
      <trkpt lat="40.320993" lon="-5.796265">
        <ele>1307.230</ele>
        <time>2022-01-27T21:27:01Z</time>
      </trkpt>
      <trkpt lat="40.321197" lon="-5.796480">
        <ele>1309.945</ele>
        <time>2022-01-27T21:27:41Z</time>
      </trkpt>
      <trkpt lat="40.321390" lon="-5.796593">
        <ele>1311.313</ele>
        <time>2022-01-27T21:28:21Z</time>
      </trkpt>
      <trkpt lat="40.322148" lon="-5.796355">
        <ele>1313.643</ele>
        <time>2022-01-27T21:29:01Z</time>
      </trkpt>
      <trkpt lat="40.322459" lon="-5.796226">
        <ele>1316.307</ele>
        <time>2022-01-27T21:29:41Z</time>
      </trkpt>
      <trkpt lat="40.323154" lon="-5.795636">
        <ele>1320.208</ele>
        <time>2022-01-27T21:30:21Z</time>
      </trkpt>
      <trkpt lat="40.323526" lon="-5.795656">
        <ele>1322.390</ele>
        <time>2022-01-27T21:31:01Z</time>
      </trkpt>
      <trkpt lat="40.323849" lon="-5.795629">
        <ele>1320.924</ele>
        <time>2022-01-27T21:31:41Z</time>
      </trkpt>
      <trkpt lat="40.324328" lon="-5.795801">
        <ele>1319.218</ele>
        <time>2022-01-27T21:32:21Z</time>
      </trkpt>
      <trkpt lat="40.324978" lon="-5.795543">
        <ele>1327.378</ele>
        <time>2022-01-27T21:33:01Z</time>
      </trkpt>
      <trkpt lat="40.325886" lon="-5.795333">
        <ele>1319.326</ele>
        <time>2022-01-27T21:33:41Z</time>
      </trkpt>
      <trkpt lat="40.326516" lon="-5.794990">
        <ele>1319.122</ele>
        <time>2022-01-27T21:34:21Z</time>
      </trkpt>
      <trkpt lat="40.327461" lon="-5.794771">
        <ele>1320.593</ele>
        <time>2022-01-27T21:35:01Z</time>
      </trkpt>
      <trkpt lat="40.327965" lon="-5.794929">
        <ele>1318.078</ele>
        <time>2022-01-27T21:35:41Z</time>
      </trkpt>
      <trkpt lat="40.328386" lon="-5.794832">
        <ele>1322.922</ele>
        <time>2022-01-27T21:36:21Z</time>
      </trkpt>
      <trkpt lat="40.328992" lon="-5.795224">
        <ele>1311.962</ele>
        <time>2022-01-27T21:37:01Z</time>
      </trkpt>
      <trkpt lat="40.329758" lon="-5.794960">
        <ele>1312.208</ele>
        <time>2022-01-27T21:37:41Z</time>
      </trkpt>
      <trkpt lat="40.330709" lon="-5.794616">
        <ele>1310.808</ele>
        <time>2022-01-27T21:38:21Z</time>
      </trkpt>
      <trkpt lat="40.330983" lon="-5.794456">
        <ele>1311.741</ele>
        <time>2022-01-27T21:39:01Z</time>
      </trkpt>
      <trkpt lat="40.331501" lon="-5.794660">
        <ele>1309.874</ele>
        <time>2022-01-26T13:01:31Z</time>
      </trkpt>
      <trkpt lat="40.331853" lon="-5.793668">
        <ele>1306.356</ele>
        <time>2022-01-26T13:02:11Z</time>
      </trkpt>
      <trkpt lat="40.332806" lon="-5.792584">
        <ele>1292.221</ele>
        <time>2022-01-26T13:02:51Z</time>
      </trkpt>
      <trkpt lat="40.333043" lon="-5.792000">
        <ele>1293.808</ele>
        <time>2022-01-26T13:03:31Z</time>
      </trkpt>
      <trkpt lat="40.333206" lon="-5.791190">
        <ele>1296.276</ele>
        <time>2022-01-26T13:04:11Z</time>
      </trkpt>
      <trkpt lat="40.333198" lon="-5.790820">
        <ele>1299.610</ele>
        <time>2022-01-26T13:04:51Z</time>
      </trkpt>
      <trkpt lat="40.333607" lon="-5.790482">
        <ele>1293.763</ele>
        <time>2022-01-26T13:05:31Z</time>
      </trkpt>
      <trkpt lat="40.333963" lon="-5.789843">
        <ele>1293.915</ele>
        <time>2022-01-26T13:06:11Z</time>
      </trkpt>
      <trkpt lat="40.334335" lon="-5.789436">
        <ele>1294.132</ele>
        <time>2022-01-26T13:06:51Z</time>
      </trkpt>
      <trkpt lat="40.334891" lon="-5.788373">
        <ele>1298.232</ele>
        <time>2022-01-26T13:07:31Z</time>
      </trkpt>
      <trkpt lat="40.335075" lon="-5.787783">
        <ele>1296.751</ele>
        <time>2022-01-26T13:08:11Z</time>
      </trkpt>
      <trkpt lat="40.335259" lon="-5.786844">
        <ele>1294.747</ele>
        <time>2022-01-26T13:08:51Z</time>
      </trkpt>
      <trkpt lat="40.335423" lon="-5.786335">
        <ele>1293.049</ele>
        <time>2022-01-26T13:09:31Z</time>
      </trkpt>
      <trkpt lat="40.335586" lon="-5.786034">
        <ele>1292.002</ele>
        <time>2022-01-26T13:10:11Z</time>
      </trkpt>
      <trkpt lat="40.336085" lon="-5.785815">
        <ele>1286.222</ele>
        <time>2022-01-26T13:10:51Z</time>
      </trkpt>
      <trkpt lat="40.336355" lon="-5.785434">
        <ele>1290.108</ele>
        <time>2022-01-26T13:11:31Z</time>
      </trkpt>
      <trkpt lat="40.337271" lon="-5.784752">
        <ele>1291.483</ele>
        <time>2022-01-26T13:12:11Z</time>
      </trkpt>
      <trkpt lat="40.337831" lon="-5.783926">
        <ele>1291.457</ele>
        <time>2022-01-26T13:12:51Z</time>
      </trkpt>
      <trkpt lat="40.338179" lon="-5.783422">
        <ele>1287.890</ele>
        <time>2022-01-26T13:13:31Z</time>
      </trkpt>
      <trkpt lat="40.338404" lon="-5.782896">
        <ele>1285.092</ele>
        <time>2022-01-26T13:14:11Z</time>
      </trkpt>
      <trkpt lat="40.338817" lon="-5.782451">
        <ele>1284.869</ele>
        <time>2022-01-26T13:14:51Z</time>
      </trkpt>
      <trkpt lat="40.339107" lon="-5.781958">
        <ele>1288.969</ele>
        <time>2022-01-26T13:15:31Z</time>
      </trkpt>
      <trkpt lat="40.339324" lon="-5.781534">
        <ele>1290.098</ele>
        <time>2022-01-26T13:16:11Z</time>
      </trkpt>
      <trkpt lat="40.339831" lon="-5.780407">
        <ele>1289.744</ele>
        <time>2022-01-26T13:16:51Z</time>
      </trkpt>
      <trkpt lat="40.339904" lon="-5.779914">
        <ele>1290.792</ele>
        <time>2022-01-26T13:17:31Z</time>
      </trkpt>
      <trkpt lat="40.340031" lon="-5.779152">
        <ele>1291.673</ele>
        <time>2022-01-26T13:18:11Z</time>
      </trkpt>
      <trkpt lat="40.340162" lon="-5.778433">
        <ele>1292.120</ele>
        <time>2022-01-26T13:18:51Z</time>
      </trkpt>
      <trkpt lat="40.340877" lon="-5.776915">
        <ele>1279.808</ele>
        <time>2022-01-26T13:19:31Z</time>
      </trkpt>
      <trkpt lat="40.341127" lon="-5.776765">
        <ele>1275.368</ele>
        <time>2022-01-26T13:20:11Z</time>
      </trkpt>
      <trkpt lat="40.341765" lon="-5.776491">
        <ele>1269.162</ele>
        <time>2022-01-26T13:20:51Z</time>
      </trkpt>
      <trkpt lat="40.342210" lon="-5.776019">
        <ele>1266.385</ele>
        <time>2022-01-26T13:21:31Z</time>
      </trkpt>
      <trkpt lat="40.342791" lon="-5.775123">
        <ele>1263.947</ele>
        <time>2022-01-26T13:22:11Z</time>
      </trkpt>
      <trkpt lat="40.343097" lon="-5.774780">
        <ele>1261.224</ele>
        <time>2022-01-26T13:22:51Z</time>
      </trkpt>
      <trkpt lat="40.344279" lon="-5.774227">
        <ele>1260.134</ele>
        <time>2022-01-26T13:23:31Z</time>
      </trkpt>
      <trkpt lat="40.344471" lon="-5.773981">
        <ele>1260.573</ele>
        <time>2022-01-26T13:24:11Z</time>
      </trkpt>
      <trkpt lat="40.344884" lon="-5.773106">
        <ele>1260.789</ele>
        <time>2022-01-26T13:24:51Z</time>
      </trkpt>
      <trkpt lat="40.344909" lon="-5.772843">
        <ele>1261.717</ele>
        <time>2022-01-26T13:25:31Z</time>
      </trkpt>
      <trkpt lat="40.344819" lon="-5.772516">
        <ele>1259.587</ele>
        <time>2022-01-26T13:26:11Z</time>
      </trkpt>
      <trkpt lat="40.344618" lon="-5.772264">
        <ele>1259.215</ele>
        <time>2022-01-26T13:26:51Z</time>
      </trkpt>
      <trkpt lat="40.344414" lon="-5.772049">
        <ele>1257.608</ele>
        <time>2022-01-26T13:27:31Z</time>
      </trkpt>
      <trkpt lat="40.344230" lon="-5.771309">
        <ele>1246.590</ele>
        <time>2022-01-26T13:28:11Z</time>
      </trkpt>
      <trkpt lat="40.344087" lon="-5.771261">
        <ele>1248.324</ele>
        <time>2022-01-26T13:28:51Z</time>
      </trkpt>
      <trkpt lat="40.343858" lon="-5.771084">
        <ele>1247.147</ele>
        <time>2022-01-26T13:29:31Z</time>
      </trkpt>
      <trkpt lat="40.343674" lon="-5.770816">
        <ele>1244.559</ele>
        <time>2022-01-26T13:30:11Z</time>
      </trkpt>
      <trkpt lat="40.343355" lon="-5.770510">
        <ele>1242.426</ele>
        <time>2022-01-26T13:30:51Z</time>
      </trkpt>
      <trkpt lat="40.343155" lon="-5.770354">
        <ele>1239.596</ele>
        <time>2022-01-26T13:31:31Z</time>
      </trkpt>
      <trkpt lat="40.342811" lon="-5.770354">
        <ele>1238.485</ele>
        <time>2022-01-26T13:32:11Z</time>
      </trkpt>
      <trkpt lat="40.342545" lon="-5.770231">
        <ele>1235.341</ele>
        <time>2022-01-26T13:32:51Z</time>
      </trkpt>
      <trkpt lat="40.342570" lon="-5.769802">
        <ele>1229.349</ele>
        <time>2022-01-26T13:33:31Z</time>
      </trkpt>
      <trkpt lat="40.342537" lon="-5.769630">
        <ele>1228.302</ele>
        <time>2022-01-26T13:34:11Z</time>
      </trkpt>
      <trkpt lat="40.342153" lon="-5.769528">
        <ele>1229.422</ele>
        <time>2022-01-26T13:34:51Z</time>
      </trkpt>
      <trkpt lat="40.341760" lon="-5.769576">
        <ele>1225.308</ele>
        <time>2022-01-26T13:35:31Z</time>
      </trkpt>
      <trkpt lat="40.341536" lon="-5.769297">
        <ele>1220.043</ele>
        <time>2022-01-26T13:36:11Z</time>
      </trkpt>
      <trkpt lat="40.341347" lon="-5.768825">
        <ele>1216.487</ele>
        <time>2022-01-26T13:36:51Z</time>
      </trkpt>
      <trkpt lat="40.341155" lon="-5.768622">
        <ele>1215.440</ele>
        <time>2022-01-26T13:37:31Z</time>
      </trkpt>
      <trkpt lat="40.340763" lon="-5.768348">
        <ele>1214.522</ele>
        <time>2022-01-26T13:38:11Z</time>
      </trkpt>
      <trkpt lat="40.340391" lon="-5.768096">
        <ele>1209.059</ele>
        <time>2022-01-26T13:38:51Z</time>
      </trkpt>
      <trkpt lat="40.339871" lon="-5.767849">
        <ele>1207.219</ele>
        <time>2022-01-26T13:39:31Z</time>
      </trkpt>
      <trkpt lat="40.339606" lon="-5.766572">
        <ele>1202.058</ele>
        <time>2022-01-26T13:40:11Z</time>
      </trkpt>
      <trkpt lat="40.339480" lon="-5.766503">
        <ele>1205.261</ele>
        <time>2022-01-02T13:41:52Z</time>
      </trkpt>
      <trkpt lat="40.339099" lon="-5.766647">
        <ele>1208.221</ele>
        <time>2022-01-02T13:42:32Z</time>
      </trkpt>
      <trkpt lat="40.338691" lon="-5.766674">
        <ele>1210.013</ele>
        <time>2022-01-02T13:43:12Z</time>
      </trkpt>
      <trkpt lat="40.338449" lon="-5.766701">
        <ele>1214.308</ele>
        <time>2022-01-02T13:43:52Z</time>
      </trkpt>
      <trkpt lat="40.338196" lon="-5.767039">
        <ele>1215.385</ele>
        <time>2022-01-02T13:44:32Z</time>
      </trkpt>
      <trkpt lat="40.337938" lon="-5.767082">
        <ele>1220.497</ele>
        <time>2022-01-02T13:45:12Z</time>
      </trkpt>
      <trkpt lat="40.337938" lon="-5.766889">
        <ele>1219.814</ele>
        <time>2022-01-02T13:45:52Z</time>
      </trkpt>
      <trkpt lat="40.338102" lon="-5.766610">
        <ele>1222.954</ele>
        <time>2022-01-02T13:46:32Z</time>
      </trkpt>
      <trkpt lat="40.338102" lon="-5.766610">
        <ele>1222.981</ele>
        <time>2022-01-02T13:47:12Z</time>
      </trkpt>
      <trkpt lat="40.338036" lon="-5.766503">
        <ele>1225.421</ele>
        <time>2022-01-02T13:47:52Z</time>
      </trkpt>
      <trkpt lat="40.337824" lon="-5.766481">
        <ele>1226.261</ele>
        <time>2022-01-02T13:48:32Z</time>
      </trkpt>
      <trkpt lat="40.337419" lon="-5.766352">
        <ele>1231.711</ele>
        <time>2022-01-02T13:49:12Z</time>
      </trkpt>
      <trkpt lat="40.337176" lon="-5.766331">
        <ele>1233.485</ele>
        <time>2022-01-02T13:49:52Z</time>
      </trkpt>
      <trkpt lat="40.336849" lon="-5.766546">
        <ele>1234.089</ele>
        <time>2022-01-02T13:50:32Z</time>
      </trkpt>
      <trkpt lat="40.336550" lon="-5.766417">
        <ele>1238.317</ele>
        <time>2022-01-02T13:51:12Z</time>
      </trkpt>
      <trkpt lat="40.336499" lon="-5.766394">
        <ele>1238.608</ele>
        <time>2022-01-02T13:51:52Z</time>
      </trkpt>
      <trkpt lat="40.336356" lon="-5.766512">
        <ele>1239.997</ele>
        <time>2022-01-02T13:52:32Z</time>
      </trkpt>
      <trkpt lat="40.336266" lon="-5.766620">
        <ele>1241.269</ele>
        <time>2022-01-02T13:53:12Z</time>
      </trkpt>
      <trkpt lat="40.335992" lon="-5.766630">
        <ele>1245.646</ele>
        <time>2022-01-02T13:53:52Z</time>
      </trkpt>
      <trkpt lat="40.335886" lon="-5.766571">
        <ele>1248.196</ele>
        <time>2022-01-02T13:54:32Z</time>
      </trkpt>
      <trkpt lat="40.335603" lon="-5.766378">
        <ele>1250.933</ele>
        <time>2022-01-02T13:55:12Z</time>
      </trkpt>
      <trkpt lat="40.335230" lon="-5.766262">
        <ele>1256.743</ele>
        <time>2022-01-02T13:55:52Z</time>
      </trkpt>
      <trkpt lat="40.334367" lon="-5.766434">
        <ele>1263.823</ele>
        <time>2022-01-02T13:56:32Z</time>
      </trkpt>
      <trkpt lat="40.334195" lon="-5.766262">
        <ele>1265.873</ele>
        <time>2022-01-02T13:57:12Z</time>
      </trkpt>
      <trkpt lat="40.334310" lon="-5.765790">
        <ele>1269.921</ele>
        <time>2022-01-02T13:57:52Z</time>
      </trkpt>
      <trkpt lat="40.334314" lon="-5.765222">
        <ele>1276.041</ele>
        <time>2022-01-02T13:58:32Z</time>
      </trkpt>
      <trkpt lat="40.333886" lon="-5.764960">
        <ele>1282.505</ele>
        <time>2022-01-02T13:59:12Z</time>
      </trkpt>
      <trkpt lat="40.333248" lon="-5.764831">
        <ele>1287.108</ele>
        <time>2022-01-02T13:59:52Z</time>
      </trkpt>
      <trkpt lat="40.332913" lon="-5.764965">
        <ele>1286.991</ele>
        <time>2022-01-02T14:00:32Z</time>
      </trkpt>
      <trkpt lat="40.332667" lon="-5.765416">
        <ele>1284.663</ele>
        <time>2022-01-02T14:01:12Z</time>
      </trkpt>
      <trkpt lat="40.332334" lon="-5.765698">
        <ele>1284.220</ele>
        <time>2022-01-02T14:01:52Z</time>
      </trkpt>
      <trkpt lat="40.331903" lon="-5.765804">
        <ele>1287.990</ele>
        <time>2022-01-02T14:02:32Z</time>
      </trkpt>
      <trkpt lat="40.330776" lon="-5.765619">
        <ele>1297.747</ele>
        <time>2022-01-02T14:03:12Z</time>
      </trkpt>
      <trkpt lat="40.330653" lon="-5.765699">
        <ele>1299.967</ele>
        <time>2022-01-02T14:03:52Z</time>
      </trkpt>
      <trkpt lat="40.330551" lon="-5.766064">
        <ele>1300.487</ele>
        <time>2022-01-02T14:04:32Z</time>
      </trkpt>
      <trkpt lat="40.330044" lon="-5.766350">
        <ele>1308.617</ele>
        <time>2022-01-02T14:05:12Z</time>
      </trkpt>
      <trkpt lat="40.329064" lon="-5.766709">
        <ele>1319.622</ele>
        <time>2022-01-02T14:05:52Z</time>
      </trkpt>
      <trkpt lat="40.328503" lon="-5.766860">
        <ele>1325.562</ele>
        <time>2022-01-02T14:06:32Z</time>
      </trkpt>
      <trkpt lat="40.327424" lon="-5.766812">
        <ele>1340.608</ele>
        <time>2022-01-02T14:07:12Z</time>
      </trkpt>
      <trkpt lat="40.326927" lon="-5.766695">
        <ele>1349.608</ele>
        <time>2022-01-02T14:07:52Z</time>
      </trkpt>
      <trkpt lat="40.326069" lon="-5.767370">
        <ele>1354.571</ele>
        <time>2022-01-02T14:08:32Z</time>
      </trkpt>
      <trkpt lat="40.325746" lon="-5.767471">
        <ele>1359.043</ele>
        <time>2022-01-02T14:09:12Z</time>
      </trkpt>
      <trkpt lat="40.325399" lon="-5.767547">
        <ele>1364.620</ele>
        <time>2022-01-02T14:09:52Z</time>
      </trkpt>
      <trkpt lat="40.325374" lon="-5.767439">
        <ele>1366.090</ele>
        <time>2022-01-02T14:10:32Z</time>
      </trkpt>
      <trkpt lat="40.325517" lon="-5.767343">
        <ele>1366.037</ele>
        <time>2022-01-02T14:11:12Z</time>
      </trkpt>
      <trkpt lat="40.326004" lon="-5.767005">
        <ele>1363.597</ele>
        <time>2022-01-02T14:11:52Z</time>
      </trkpt>
      <trkpt lat="40.326401" lon="-5.766613">
        <ele>1365.947</ele>
        <time>2022-01-02T14:12:32Z</time>
      </trkpt>
      <trkpt lat="40.326740" lon="-5.766227">
        <ele>1367.327</ele>
        <time>2022-01-02T14:13:12Z</time>
      </trkpt>
      <trkpt lat="40.327326" lon="-5.765726">
        <ele>1370.042</ele>
        <time>2022-01-02T14:13:52Z</time>
      </trkpt>
      <trkpt lat="40.327969" lon="-5.765307">
        <ele>1374.122</ele>
        <time>2022-01-02T14:14:32Z</time>
      </trkpt>
      <trkpt lat="40.328467" lon="-5.765019">
        <ele>1376.014</ele>
        <time>2022-01-02T14:15:12Z</time>
      </trkpt>
      <trkpt lat="40.328709" lon="-5.764713">
        <ele>1379.408</ele>
        <time>2022-01-02T14:15:52Z</time>
      </trkpt>
      <trkpt lat="40.329007" lon="-5.764214">
        <ele>1378.273</ele>
        <time>2022-01-02T14:16:32Z</time>
      </trkpt>
      <trkpt lat="40.328938" lon="-5.763646">
        <ele>1386.255</ele>
        <time>2022-01-02T14:17:12Z</time>
      </trkpt>
      <trkpt lat="40.328881" lon="-5.763082">
        <ele>1389.252</ele>
        <time>2022-01-02T14:17:52Z</time>
      </trkpt>
      <trkpt lat="40.328774" lon="-5.762471">
        <ele>1395.192</ele>
        <time>2022-01-02T14:18:32Z</time>
      </trkpt>
      <trkpt lat="40.328512" lon="-5.762009">
        <ele>1403.319</ele>
        <time>2022-01-02T14:19:12Z</time>
      </trkpt>
      <trkpt lat="40.328427" lon="-5.762154">
        <ele>1405.469</ele>
        <time>2022-01-02T14:19:52Z</time>
      </trkpt>
      <trkpt lat="40.328328" lon="-5.762417">
        <ele>1408.849</ele>
        <time>2022-01-02T14:20:32Z</time>
      </trkpt>
      <trkpt lat="40.328222" lon="-5.762996">
        <ele>1413.129</ele>
        <time>2022-01-02T14:21:12Z</time>
      </trkpt>
      <trkpt lat="40.328042" lon="-5.763533">
        <ele>1416.125</ele>
        <time>2022-01-02T14:21:52Z</time>
      </trkpt>
      <trkpt lat="40.327764" lon="-5.763817">
        <ele>1419.126</ele>
        <time>2022-01-02T14:22:32Z</time>
      </trkpt>
      <trkpt lat="40.327264" lon="-5.764138">
        <ele>1424.008</ele>
        <time>2022-01-02T14:23:12Z</time>
      </trkpt>
      <trkpt lat="40.326831" lon="-5.764347">
        <ele>1428.608</ele>
        <time>2022-01-02T14:23:52Z</time>
      </trkpt>
      <trkpt lat="40.326344" lon="-5.764551">
        <ele>1432.911</ele>
        <time>2022-01-02T14:24:32Z</time>
      </trkpt>
      <trkpt lat="40.325664" lon="-5.764735">
        <ele>1440.053</ele>
        <time>2022-01-02T14:25:12Z</time>
      </trkpt>
      <trkpt lat="40.325174" lon="-5.764740">
        <ele>1442.920</ele>
        <time>2022-01-02T14:25:52Z</time>
      </trkpt>
      <trkpt lat="40.325084" lon="-5.764692">
        <ele>1444.510</ele>
        <time>2022-01-02T14:26:32Z</time>
      </trkpt>
      <trkpt lat="40.325129" lon="-5.764579">
        <ele>1447.197</ele>
        <time>2022-01-02T14:27:12Z</time>
      </trkpt>
      <trkpt lat="40.325386" lon="-5.764439">
        <ele>1449.857</ele>
        <time>2022-01-02T14:27:52Z</time>
      </trkpt>
      <trkpt lat="40.325812" lon="-5.764144">
        <ele>1452.777</ele>
        <time>2022-01-02T14:28:32Z</time>
      </trkpt>
      <trkpt lat="40.326249" lon="-5.763705">
        <ele>1455.337</ele>
        <time>2022-01-02T14:29:12Z</time>
      </trkpt>
      <trkpt lat="40.326590" lon="-5.763111">
        <ele>1459.964</ele>
        <time>2022-01-02T14:29:52Z</time>
      </trkpt>
      <trkpt lat="40.326795" lon="-5.762521">
        <ele>1462.106</ele>
        <time>2022-01-02T14:30:32Z</time>
      </trkpt>
      <trkpt lat="40.327056" lon="-5.761347">
        <ele>1464.916</ele>
        <time>2022-01-02T14:31:12Z</time>
      </trkpt>
      <trkpt lat="40.327051" lon="-5.760693">
        <ele>1468.608</ele>
        <time>2022-01-02T14:31:52Z</time>
      </trkpt>
      <trkpt lat="40.327104" lon="-5.760087">
        <ele>1472.115</ele>
        <time>2022-01-02T14:32:32Z</time>
      </trkpt>
      <trkpt lat="40.327362" lon="-5.759765">
        <ele>1466.857</ele>
        <time>2022-01-02T14:33:12Z</time>
      </trkpt>
      <trkpt lat="40.327366" lon="-5.759599">
        <ele>1469.064</ele>
        <time>2022-01-02T14:33:52Z</time>
      </trkpt>
      <trkpt lat="40.327243" lon="-5.759127">
        <ele>1477.894</ele>
        <time>2022-01-02T14:34:32Z</time>
      </trkpt>
      <trkpt lat="40.327214" lon="-5.758644">
        <ele>1477.461</ele>
        <time>2022-01-02T14:35:12Z</time>
      </trkpt>
      <trkpt lat="40.327251" lon="-5.758408">
        <ele>1478.131</ele>
        <time>2022-01-02T14:35:52Z</time>
      </trkpt>
      <trkpt lat="40.327206" lon="-5.758204">
        <ele>1481.531</ele>
        <time>2022-01-02T14:36:32Z</time>
      </trkpt>
      <trkpt lat="40.327051" lon="-5.758241">
        <ele>1486.481</ele>
        <time>2022-01-02T14:37:12Z</time>
      </trkpt>
      <trkpt lat="40.326957" lon="-5.758483">
        <ele>1489.534</ele>
        <time>2022-01-02T14:37:52Z</time>
      </trkpt>
      <trkpt lat="40.326564" lon="-5.759781">
        <ele>1496.555</ele>
        <time>2022-01-02T14:38:32Z</time>
      </trkpt>
      <trkpt lat="40.326294" lon="-5.760977">
        <ele>1509.710</ele>
        <time>2022-01-02T14:39:12Z</time>
      </trkpt>
      <trkpt lat="40.326102" lon="-5.761396">
        <ele>1513.208</ele>
        <time>2022-01-02T14:39:52Z</time>
      </trkpt>
      <trkpt lat="40.325662" lon="-5.761785">
        <ele>1516.192</ele>
        <time>2022-01-02T14:40:32Z</time>
      </trkpt>
      <trkpt lat="40.325265" lon="-5.761860">
        <ele>1520.414</ele>
        <time>2022-01-02T14:41:12Z</time>
      </trkpt>
      <trkpt lat="40.324586" lon="-5.762246">
        <ele>1525.851</ele>
        <time>2022-01-02T14:41:52Z</time>
      </trkpt>
      <trkpt lat="40.324509" lon="-5.762204">
        <ele>1528.961</ele>
        <time>2022-01-02T14:42:32Z</time>
      </trkpt>
      <trkpt lat="40.324509" lon="-5.762118">
        <ele>1531.538</ele>
        <time>2022-01-02T14:43:12Z</time>
      </trkpt>
      <trkpt lat="40.324615" lon="-5.761935">
        <ele>1533.168</ele>
        <time>2022-01-02T14:43:52Z</time>
      </trkpt>
      <trkpt lat="40.324922" lon="-5.761495">
        <ele>1536.328</ele>
        <time>2022-01-02T14:44:32Z</time>
      </trkpt>
      <trkpt lat="40.325196" lon="-5.760830">
        <ele>1543.818</ele>
        <time>2022-01-02T14:45:12Z</time>
      </trkpt>
      <trkpt lat="40.325376" lon="-5.760170">
        <ele>1547.672</ele>
        <time>2022-01-02T14:45:52Z</time>
      </trkpt>
      <trkpt lat="40.325517" lon="-5.759605">
        <ele>1551.913</ele>
        <time>2022-01-02T14:46:32Z</time>
      </trkpt>
      <trkpt lat="40.325505" lon="-5.758934">
        <ele>1555.814</ele>
        <time>2022-01-02T14:47:12Z</time>
      </trkpt>
      <trkpt lat="40.325460" lon="-5.758559">
        <ele>1560.408</ele>
        <time>2022-01-02T14:47:52Z</time>
      </trkpt>
      <trkpt lat="40.325411" lon="-5.758242">
        <ele>1563.156</ele>
        <time>2022-01-02T14:48:32Z</time>
      </trkpt>
      <trkpt lat="40.325230" lon="-5.757958">
        <ele>1567.568</ele>
        <time>2022-01-02T14:49:12Z</time>
      </trkpt>
      <trkpt lat="40.325009" lon="-5.757620">
        <ele>1575.055</ele>
        <time>2022-01-02T14:49:52Z</time>
      </trkpt>
      <trkpt lat="40.324970" lon="-5.757322">
        <ele>1577.035</ele>
        <time>2022-01-02T14:50:32Z</time>
      </trkpt>
      <trkpt lat="40.325072" lon="-5.756710">
        <ele>1579.042</ele>
        <time>2022-01-02T14:51:12Z</time>
      </trkpt>
      <trkpt lat="40.325251" lon="-5.755701">
        <ele>1585.292</ele>
        <time>2022-01-02T14:51:52Z</time>
      </trkpt>
      <trkpt lat="40.325350" lon="-5.755535">
        <ele>1585.962</ele>
        <time>2022-01-02T14:52:32Z</time>
      </trkpt>
      <trkpt lat="40.325889" lon="-5.755374">
        <ele>1585.842</ele>
        <time>2022-01-02T14:53:12Z</time>
      </trkpt>
      <trkpt lat="40.326323" lon="-5.755111">
        <ele>1589.083</ele>
        <time>2022-01-02T14:53:52Z</time>
      </trkpt>
      <trkpt lat="40.326396" lon="-5.754912">
        <ele>1592.725</ele>
        <time>2022-01-02T14:54:32Z</time>
      </trkpt>
      <trkpt lat="40.326343" lon="-5.754505">
        <ele>1602.117</ele>
        <time>2022-01-02T14:55:12Z</time>
      </trkpt>
      <trkpt lat="40.326237" lon="-5.754161">
        <ele>1607.608</ele>
        <time>2022-01-02T14:55:52Z</time>
      </trkpt>
      <trkpt lat="40.326118" lon="-5.754108">
        <ele>1612.787</ele>
        <time>2022-01-02T14:56:32Z</time>
      </trkpt>
      <trkpt lat="40.326069" lon="-5.754161">
        <ele>1614.549</ele>
        <time>2022-01-02T14:57:12Z</time>
      </trkpt>
      <trkpt lat="40.326065" lon="-5.754419">
        <ele>1614.746</ele>
        <time>2022-01-02T14:57:52Z</time>
      </trkpt>
      <trkpt lat="40.326069" lon="-5.754692">
        <ele>1609.566</ele>
        <time>2022-01-02T14:58:32Z</time>
      </trkpt>
      <trkpt lat="40.325975" lon="-5.754805">
        <ele>1607.163</ele>
        <time>2022-01-02T14:59:12Z</time>
      </trkpt>
      <trkpt lat="40.325555" lon="-5.754838">
        <ele>1615.883</ele>
        <time>2022-01-02T14:59:52Z</time>
      </trkpt>
      <trkpt lat="40.325183" lon="-5.754838">
        <ele>1620.253</ele>
        <time>2022-01-02T15:00:32Z</time>
      </trkpt>
      <trkpt lat="40.324855" lon="-5.754887">
        <ele>1626.363</ele>
        <time>2022-01-02T15:01:12Z</time>
      </trkpt>
      <trkpt lat="40.324561" lon="-5.755139">
        <ele>1630.547</ele>
        <time>2022-01-02T15:01:52Z</time>
      </trkpt>
      <trkpt lat="40.324421" lon="-5.755509">
        <ele>1631.929</ele>
        <time>2022-01-02T15:02:32Z</time>
      </trkpt>
      <trkpt lat="40.324221" lon="-5.756115">
        <ele>1635.921</ele>
        <time>2022-01-02T15:03:12Z</time>
      </trkpt>
      <trkpt lat="40.324086" lon="-5.756689">
        <ele>1637.408</ele>
        <time>2022-01-02T15:03:52Z</time>
      </trkpt>
      <trkpt lat="40.323719" lon="-5.756996">
        <ele>1644.823</ele>
        <time>2022-01-02T15:04:32Z</time>
      </trkpt>
      <trkpt lat="40.323556" lon="-5.757189">
        <ele>1653.235</ele>
        <time>2022-01-02T15:05:12Z</time>
      </trkpt>
      <trkpt lat="40.323548" lon="-5.757586">
        <ele>1654.812</ele>
        <time>2022-01-02T15:05:52Z</time>
      </trkpt>
      <trkpt lat="40.323658" lon="-5.757886">
        <ele>1651.052</ele>
        <time>2022-01-02T15:06:32Z</time>
      </trkpt>
      <trkpt lat="40.323629" lon="-5.758101">
        <ele>1651.789</ele>
        <time>2022-01-02T15:07:12Z</time>
      </trkpt>
      <trkpt lat="40.323568" lon="-5.758305">
        <ele>1650.519</ele>
        <time>2022-01-02T15:07:52Z</time>
      </trkpt>
      <trkpt lat="40.323449" lon="-5.758342">
        <ele>1650.329</ele>
        <time>2022-01-02T15:08:32Z</time>
      </trkpt>
      <trkpt lat="40.323278" lon="-5.758310">
        <ele>1651.389</ele>
        <time>2022-01-02T15:09:12Z</time>
      </trkpt>
      <trkpt lat="40.323016" lon="-5.758203">
        <ele>1653.696</ele>
        <time>2022-01-02T15:09:52Z</time>
      </trkpt>
      <trkpt lat="40.322735" lon="-5.758181">
        <ele>1657.231</ele>
        <time>2022-01-02T15:10:32Z</time>
      </trkpt>
      <trkpt lat="40.322445" lon="-5.758342">
        <ele>1661.324</ele>
        <time>2022-01-02T15:11:12Z</time>
      </trkpt>
      <trkpt lat="40.322355" lon="-5.758332">
        <ele>1665.808</ele>
        <time>2022-01-02T15:11:52Z</time>
      </trkpt>
      <trkpt lat="40.322347" lon="-5.758187">
        <ele>1668.528</ele>
        <time>2022-01-02T15:12:32Z</time>
      </trkpt>
      <trkpt lat="40.322469" lon="-5.758074">
        <ele>1665.090</ele>
        <time>2022-01-02T15:13:12Z</time>
      </trkpt>
      <trkpt lat="40.322842" lon="-5.757634">
        <ele>1670.647</ele>
        <time>2022-01-02T15:13:52Z</time>
      </trkpt>
      <trkpt lat="40.323063" lon="-5.757371">
        <ele>1671.297</ele>
        <time>2022-01-02T15:14:32Z</time>
      </trkpt>
      <trkpt lat="40.323148" lon="-5.757189">
        <ele>1671.194</ele>
        <time>2022-01-02T15:15:12Z</time>
      </trkpt>
      <trkpt lat="40.323140" lon="-5.757007">
        <ele>1673.564</ele>
        <time>2022-01-02T15:15:52Z</time>
      </trkpt>
      <trkpt lat="40.323094" lon="-5.757009">
        <ele>1674.974</ele>
        <time>2022-01-02T15:16:32Z</time>
      </trkpt>
      <trkpt lat="40.322860" lon="-5.757239">
        <ele>1678.324</ele>
        <time>2022-01-02T15:17:12Z</time>
      </trkpt>
      <trkpt lat="40.322582" lon="-5.757395">
        <ele>1680.821</ele>
        <time>2022-01-02T15:17:52Z</time>
      </trkpt>
      <trkpt lat="40.322288" lon="-5.757577">
        <ele>1682.641</ele>
        <time>2022-01-02T15:18:32Z</time>
      </trkpt>
      <trkpt lat="40.321658" lon="-5.757642">
        <ele>1687.905</ele>
        <time>2022-01-02T15:19:12Z</time>
      </trkpt>
      <trkpt lat="40.321241" lon="-5.757486">
        <ele>1691.808</ele>
        <time>2022-01-02T15:19:52Z</time>
      </trkpt>
      <trkpt lat="40.321062" lon="-5.757332">
        <ele>1695.321</ele>
        <time>2022-01-02T15:20:32Z</time>
      </trkpt>
      <trkpt lat="40.320775" lon="-5.757208">
        <ele>1700.193</ele>
        <time>2022-01-02T15:21:12Z</time>
      </trkpt>
      <trkpt lat="40.320362" lon="-5.756908">
        <ele>1700.970</ele>
        <time>2022-01-02T15:21:52Z</time>
      </trkpt>
      <trkpt lat="40.320125" lon="-5.756624">
        <ele>1703.210</ele>
        <time>2022-01-02T15:22:32Z</time>
      </trkpt>
      <trkpt lat="40.319745" lon="-5.756023">
        <ele>1712.737</ele>
        <time>2022-01-02T15:23:12Z</time>
      </trkpt>
      <trkpt lat="40.319640" lon="-5.756052">
        <ele>1715.617</ele>
        <time>2022-01-02T15:23:52Z</time>
      </trkpt>
      <trkpt lat="40.319599" lon="-5.756186">
        <ele>1713.937</ele>
        <time>2022-01-02T15:24:32Z</time>
      </trkpt>
      <trkpt lat="40.319403" lon="-5.756422">
        <ele>1716.917</ele>
        <time>2022-01-02T15:25:12Z</time>
      </trkpt>
      <trkpt lat="40.319190" lon="-5.756711">
        <ele>1713.482</ele>
        <time>2022-01-02T15:25:52Z</time>
      </trkpt>
      <trkpt lat="40.319015" lon="-5.756762">
        <ele>1715.043</ele>
        <time>2022-01-02T15:26:32Z</time>
      </trkpt>
      <trkpt lat="40.318590" lon="-5.756917">
        <ele>1714.617</ele>
        <time>2022-01-02T15:27:12Z</time>
      </trkpt>
      <trkpt lat="40.318217" lon="-5.757078">
        <ele>1717.608</ele>
        <time>2022-01-02T15:27:52Z</time>
      </trkpt>
    </trkseg>
  </trk>
</gpx>
